sensor_id;sensor_type;location;lat;lon;timestamp;pressure;altitude;pressure_sealevel;temperature;humidity
27712;BME280;2377;51.734;8.950;2023-03-04T00:01:55;98474.47;;;2.43;95.06
27712;BME280;2377;51.734;8.950;2023-03-04T00:04:22;98477.13;;;2.41;95.67
27712;BME280;2377;51.734;8.950;2023-03-04T00:06:49;98470.28;;;2.51;95.41
27712;BME280;2377;51.734;8.950;2023-03-04T00:09:16;98471.44;;;2.57;95.11
27712;BME280;2377;51.734;8.950;2023-03-04T00:11:44;98474.75;;;2.58;95.38
27712;BME280;2377;51.734;8.950;2023-03-04T00:14:11;98474.47;;;2.61;94.46
27712;BME280;2377;51.734;8.950;2023-03-04T00:16:38;98473.53;;;2.62;94.63
27712;BME280;2377;51.734;8.950;2023-03-04T00:19:06;98467.53;;;2.63;95.52
27712;BME280;2377;51.734;8.950;2023-03-04T00:21:33;98472.47;;;2.64;95.19
27712;BME280;2377;51.734;8.950;2023-03-04T00:24:00;98464.59;;;2.67;95.38
27712;BME280;2377;51.734;8.950;2023-03-04T00:26:27;98466.69;;;2.72;94.83
27712;BME280;2377;51.734;8.950;2023-03-04T00:28:55;98477.44;;;2.74;94.30
27712;BME280;2377;51.734;8.950;2023-03-04T00:31:22;98480.66;;;2.84;93.75
27712;BME280;2377;51.734;8.950;2023-03-04T00:33:49;98465.72;;;2.91;93.96
27712;BME280;2377;51.734;8.950;2023-03-04T00:36:17;98474.91;;;2.92;93.96
27712;BME280;2377;51.734;8.950;2023-03-04T00:38:45;98470.97;;;2.97;93.29
27712;BME280;2377;51.734;8.950;2023-03-04T00:41:12;98471.50;;;3.01;93.18
27712;BME280;2377;51.734;8.950;2023-03-04T00:43:39;98467.22;;;3.02;92.36
27712;BME280;2377;51.734;8.950;2023-03-04T00:46:06;98473.06;;;3.02;92.19
27712;BME280;2377;51.734;8.950;2023-03-04T00:48:33;98464.84;;;3.00;92.69
27712;BME280;2377;51.734;8.950;2023-03-04T00:51:00;98465.94;;;2.97;91.99
27712;BME280;2377;51.734;8.950;2023-03-04T00:53:29;98455.34;;;2.94;93.05
27712;BME280;2377;51.734;8.950;2023-03-04T00:55:56;98455.13;;;2.87;93.44
27712;BME280;2377;51.734;8.950;2023-03-04T00:58:23;98457.28;;;2.82;93.69
27712;BME280;2377;51.734;8.950;2023-03-04T01:00:50;98456.00;;;2.78;93.62
27712;BME280;2377;51.734;8.950;2023-03-04T01:03:17;98462.41;;;2.72;93.93
27712;BME280;2377;51.734;8.950;2023-03-04T01:05:44;98458.66;;;2.77;94.64
27712;BME280;2377;51.734;8.950;2023-03-04T01:08:11;98457.50;;;2.89;94.12
27712;BME280;2377;51.734;8.950;2023-03-04T01:10:40;98447.91;;;2.92;93.59
27712;BME280;2377;51.734;8.950;2023-03-04T01:13:07;98456.78;;;2.96;93.30
27712;BME280;2377;51.734;8.950;2023-03-04T01:15:34;98453.75;;;2.93;93.54
27712;BME280;2377;51.734;8.950;2023-03-04T01:18:01;98455.63;;;2.91;92.63
27712;BME280;2377;51.734;8.950;2023-03-04T01:20:28;98455.91;;;2.88;93.53
27712;BME280;2377;51.734;8.950;2023-03-04T01:22:55;98450.88;;;2.88;92.79
27712;BME280;2377;51.734;8.950;2023-03-04T01:25:22;98444.88;;;2.89;93.56
27712;BME280;2377;51.734;8.950;2023-03-04T01:27:51;98452.66;;;2.95;93.42
27712;BME280;2377;51.734;8.950;2023-03-04T01:30:18;98452.16;;;2.92;92.95
27712;BME280;2377;51.734;8.950;2023-03-04T01:32:45;98444.44;;;2.93;93.17
27712;BME280;2377;51.734;8.950;2023-03-04T01:35:13;98453.94;;;3.00;93.62
27712;BME280;2377;51.734;8.950;2023-03-04T01:37:40;98442.97;;;3.09;92.84
27712;BME280;2377;51.734;8.950;2023-03-04T01:40:09;98440.28;;;3.10;92.97
27712;BME280;2377;51.734;8.950;2023-03-04T01:42:36;98439.66;;;3.08;91.96
27712;BME280;2377;51.734;8.950;2023-03-04T01:45:09;98435.53;;;3.07;92.60
27712;BME280;2377;51.734;8.950;2023-03-04T01:47:36;98430.78;;;3.04;92.62
27712;BME280;2377;51.734;8.950;2023-03-04T01:50:16;98428.91;;;3.06;91.85
27712;BME280;2377;51.734;8.950;2023-03-04T01:52:43;98421.47;;;3.05;92.24
27712;BME280;2377;51.734;8.950;2023-03-04T01:55:15;98429.56;;;3.08;92.15
27712;BME280;2377;51.734;8.950;2023-03-04T01:57:44;98420.53;;;3.06;91.94
27712;BME280;2377;51.734;8.950;2023-03-04T02:00:29;98420.06;;;3.10;91.51
27712;BME280;2377;51.734;8.950;2023-03-04T02:03:00;98410.47;;;3.14;92.09
27712;BME280;2377;51.734;8.950;2023-03-04T02:05:29;98413.00;;;3.14;91.45
27712;BME280;2377;51.734;8.950;2023-03-04T02:07:58;98412.66;;;3.09;91.51
27712;BME280;2377;51.734;8.950;2023-03-04T02:10:27;98413.44;;;3.09;91.80
27712;BME280;2377;51.734;8.950;2023-03-04T02:12:54;98400.69;;;3.11;92.20
27712;BME280;2377;51.734;8.950;2023-03-04T02:15:24;98404.00;;;3.11;91.30
27712;BME280;2377;51.734;8.950;2023-03-04T02:17:51;98406.31;;;3.05;92.14
27712;BME280;2377;51.734;8.950;2023-03-04T02:20:34;98407.41;;;3.02;92.09
27712;BME280;2377;51.734;8.950;2023-03-04T02:23:13;98403.94;;;3.03;92.26
27712;BME280;2377;51.734;8.950;2023-03-04T02:25:45;98408.97;;;3.03;92.63
27712;BME280;2377;51.734;8.950;2023-03-04T02:28:15;98406.13;;;2.98;92.83
27712;BME280;2377;51.734;8.950;2023-03-04T02:30:42;98401.56;;;3.02;93.20
27712;BME280;2377;51.734;8.950;2023-03-04T02:33:16;98401.59;;;3.10;93.15
27712;BME280;2377;51.734;8.950;2023-03-04T02:35:43;98398.59;;;3.06;93.00
27712;BME280;2377;51.734;8.950;2023-03-04T02:38:11;98398.59;;;3.06;92.33
27712;BME280;2377;51.734;8.950;2023-03-04T02:40:41;98397.91;;;2.96;92.88
27712;BME280;2377;51.734;8.950;2023-03-04T02:43:11;98389.22;;;2.99;92.94
27712;BME280;2377;51.734;8.950;2023-03-04T02:45:42;98388.50;;;3.06;92.96
27712;BME280;2377;51.734;8.950;2023-03-04T02:48:11;98385.13;;;2.97;92.60
27712;BME280;2377;51.734;8.950;2023-03-04T02:50:43;98383.13;;;3.01;93.03
27712;BME280;2377;51.734;8.950;2023-03-04T02:53:11;98382.94;;;3.03;93.00
27712;BME280;2377;51.734;8.950;2023-03-04T02:55:38;98380.59;;;3.01;92.57
27712;BME280;2377;51.734;8.950;2023-03-04T02:58:07;98374.28;;;3.05;92.16
27712;BME280;2377;51.734;8.950;2023-03-04T03:00:34;98376.81;;;3.05;92.37
27712;BME280;2377;51.734;8.950;2023-03-04T03:03:03;98371.91;;;3.04;92.65
27712;BME280;2377;51.734;8.950;2023-03-04T03:05:32;98376.81;;;3.05;92.25
27712;BME280;2377;51.734;8.950;2023-03-04T03:08:00;98376.81;;;3.05;92.49
27712;BME280;2377;51.734;8.950;2023-03-04T03:10:27;98374.00;;;3.08;91.71
27712;BME280;2377;51.734;8.950;2023-03-04T03:12:54;98370.53;;;3.09;92.24
27712;BME280;2377;51.734;8.950;2023-03-04T03:15:21;98372.25;;;3.09;92.19
27712;BME280;2377;51.734;8.950;2023-03-04T03:17:49;98371.81;;;3.13;91.96
27712;BME280;2377;51.734;8.950;2023-03-04T03:20:18;98369.94;;;3.15;91.57
27712;BME280;2377;51.734;8.950;2023-03-04T03:22:46;98365.84;;;3.23;92.19
27712;BME280;2377;51.734;8.950;2023-03-04T03:25:14;98366.50;;;3.25;91.32
27712;BME280;2377;51.734;8.950;2023-03-04T03:27:42;98363.22;;;3.32;90.94
27712;BME280;2377;51.734;8.950;2023-03-04T03:30:12;98361.78;;;3.30;90.88
27712;BME280;2377;51.734;8.950;2023-03-04T03:32:40;98353.38;;;3.21;90.83
27712;BME280;2377;51.734;8.950;2023-03-04T03:35:07;98362.22;;;3.25;91.22
27712;BME280;2377;51.734;8.950;2023-03-04T03:37:36;98357.66;;;3.29;91.64
27712;BME280;2377;51.734;8.950;2023-03-04T03:40:04;98365.44;;;3.35;91.45
27712;BME280;2377;51.734;8.950;2023-03-04T03:42:31;98361.53;;;3.41;90.71
27712;BME280;2377;51.734;8.950;2023-03-04T03:44:58;98357.72;;;3.45;90.59
27712;BME280;2377;51.734;8.950;2023-03-04T03:47:26;98357.69;;;3.37;90.20
27712;BME280;2377;51.734;8.950;2023-03-04T03:49:53;98356.28;;;3.34;90.46
27712;BME280;2377;51.734;8.950;2023-03-04T03:52:20;98360.50;;;3.34;90.24
27712;BME280;2377;51.734;8.950;2023-03-04T03:54:48;98358.63;;;3.28;91.00
27712;BME280;2377;51.734;8.950;2023-03-04T03:57:15;98358.75;;;3.26;91.80
27712;BME280;2377;51.734;8.950;2023-03-04T03:59:42;98353.56;;;3.28;91.41
27712;BME280;2377;51.734;8.950;2023-03-04T04:02:09;98361.81;;;3.38;90.59
27712;BME280;2377;51.734;8.950;2023-03-04T04:04:36;98358.34;;;3.39;91.25
27712;BME280;2377;51.734;8.950;2023-03-04T04:07:03;98344.13;;;3.38;90.47
27712;BME280;2377;51.734;8.950;2023-03-04T04:09:30;98343.00;;;3.32;91.63
27712;BME280;2377;51.734;8.950;2023-03-04T04:11:59;98344.25;;;3.28;90.79
27712;BME280;2377;51.734;8.950;2023-03-04T04:14:26;98339.66;;;3.24;91.25
27712;BME280;2377;51.734;8.950;2023-03-04T04:16:53;98347.88;;;3.26;91.48
27712;BME280;2377;51.734;8.950;2023-03-04T04:19:21;98350.06;;;3.21;91.57
27712;BME280;2377;51.734;8.950;2023-03-04T04:21:48;98345.94;;;3.20;91.80
27712;BME280;2377;51.734;8.950;2023-03-04T04:24:16;98346.28;;;3.25;92.16
27712;BME280;2377;51.734;8.950;2023-03-04T04:26:43;98350.41;;;3.34;91.58
27712;BME280;2377;51.734;8.950;2023-03-04T04:29:13;98342.84;;;3.34;91.30
27712;BME280;2377;51.734;8.950;2023-03-04T04:31:40;98343.84;;;3.41;91.51
27712;BME280;2377;51.734;8.950;2023-03-04T04:34:08;98336.25;;;3.41;91.28
27712;BME280;2377;51.734;8.950;2023-03-04T04:36:35;98346.69;;;3.46;91.22
27712;BME280;2377;51.734;8.950;2023-03-04T04:39:03;98343.97;;;3.48;90.18
27712;BME280;2377;51.734;8.950;2023-03-04T04:41:35;98343.19;;;3.47;90.10
27712;BME280;2377;51.734;8.950;2023-03-04T04:44:03;98338.00;;;3.49;90.45
27712;BME280;2377;51.734;8.950;2023-03-04T04:46:32;98332.44;;;3.45;90.68
27712;BME280;2377;51.734;8.950;2023-03-04T04:49:00;98333.25;;;3.46;90.24
27712;BME280;2377;51.734;8.950;2023-03-04T04:51:27;98328.16;;;3.37;91.27
27712;BME280;2377;51.734;8.950;2023-03-04T04:53:55;98333.81;;;3.31;91.79
27712;BME280;2377;51.734;8.950;2023-03-04T04:56:23;98338.59;;;3.34;91.85
27712;BME280;2377;51.734;8.950;2023-03-04T04:58:52;98336.72;;;3.36;92.13
27712;BME280;2377;51.734;8.950;2023-03-04T05:01:19;98335.94;;;3.44;91.75
27712;BME280;2377;51.734;8.950;2023-03-04T05:03:48;98333.88;;;3.48;91.45
27712;BME280;2377;51.734;8.950;2023-03-04T05:06:18;98339.56;;;3.50;91.02
27712;BME280;2377;51.734;8.950;2023-03-04T05:08:46;98340.72;;;3.55;90.96
27712;BME280;2377;51.734;8.950;2023-03-04T05:11:13;98334.97;;;3.45;91.26
27712;BME280;2377;51.734;8.950;2023-03-04T05:13:40;98334.84;;;3.47;91.92
27712;BME280;2377;51.734;8.950;2023-03-04T05:16:08;98331.22;;;3.49;91.55
27712;BME280;2377;51.734;8.950;2023-03-04T05:18:35;98336.25;;;3.49;91.11
27712;BME280;2377;51.734;8.950;2023-03-04T05:21:04;98335.03;;;3.53;91.17
27712;BME280;2377;51.734;8.950;2023-03-04T05:23:35;98336.13;;;3.51;91.14
27712;BME280;2377;51.734;8.950;2023-03-04T05:26:04;98333.41;;;3.52;92.02
27712;BME280;2377;51.734;8.950;2023-03-04T05:28:33;98334.38;;;3.51;91.93
27712;BME280;2377;51.734;8.950;2023-03-04T05:31:00;98326.00;;;3.51;91.84
27712;BME280;2377;51.734;8.950;2023-03-04T05:33:27;98329.78;;;3.47;92.00
27712;BME280;2377;51.734;8.950;2023-03-04T05:35:54;98329.78;;;3.47;92.64
27712;BME280;2377;51.734;8.950;2023-03-04T05:38:23;98328.53;;;3.51;91.68
27712;BME280;2377;51.734;8.950;2023-03-04T05:41:00;98335.16;;;3.44;92.10
27712;BME280;2377;51.734;8.950;2023-03-04T05:43:28;98332.78;;;3.42;92.71
27712;BME280;2377;51.734;8.950;2023-03-04T05:45:55;98327.06;;;3.32;93.16
27712;BME280;2377;51.734;8.950;2023-03-04T05:48:23;98337.16;;;3.32;93.96
27712;BME280;2377;51.734;8.950;2023-03-04T05:50:53;98331.34;;;3.39;93.36
27712;BME280;2377;51.734;8.950;2023-03-04T05:53:22;98337.22;;;3.48;93.13
27712;BME280;2377;51.734;8.950;2023-03-04T05:55:49;98335.28;;;3.42;93.96
27712;BME280;2377;51.734;8.950;2023-03-04T05:58:18;98337.69;;;3.44;93.32
27712;BME280;2377;51.734;8.950;2023-03-04T06:00:45;98337.81;;;3.42;93.88
27712;BME280;2377;51.734;8.950;2023-03-04T06:03:17;98326.59;;;3.36;94.31
27712;BME280;2377;51.734;8.950;2023-03-04T06:05:45;98338.06;;;3.23;94.86
27712;BME280;2377;51.734;8.950;2023-03-04T06:08:13;98337.75;;;3.26;94.74
27712;BME280;2377;51.734;8.950;2023-03-04T06:10:41;98334.00;;;3.30;94.57
27712;BME280;2377;51.734;8.950;2023-03-04T06:13:09;98336.03;;;3.26;94.56
27712;BME280;2377;51.734;8.950;2023-03-04T06:15:37;98341.56;;;3.30;94.44
27712;BME280;2377;51.734;8.950;2023-03-04T06:18:05;98337.16;;;3.32;94.14
27712;BME280;2377;51.734;8.950;2023-03-04T06:20:33;98343.19;;;3.39;93.91
27712;BME280;2377;51.734;8.950;2023-03-04T06:23:00;98345.72;;;3.47;94.31
27712;BME280;2377;51.734;8.950;2023-03-04T06:25:27;98351.28;;;3.51;93.54
27712;BME280;2377;51.734;8.950;2023-03-04T06:27:56;98345.13;;;3.53;93.25
27712;BME280;2377;51.734;8.950;2023-03-04T06:30:23;98351.47;;;3.57;93.46
27712;BME280;2377;51.734;8.950;2023-03-04T06:32:51;98353.22;;;3.65;93.56
27712;BME280;2377;51.734;8.950;2023-03-04T06:35:18;98355.88;;;3.64;93.28
27712;BME280;2377;51.734;8.950;2023-03-04T06:37:45;98359.34;;;3.54;94.35
27712;BME280;2377;51.734;8.950;2023-03-04T06:40:13;98355.50;;;3.42;95.60
27712;BME280;2377;51.734;8.950;2023-03-04T06:42:41;98361.69;;;3.48;95.30
27712;BME280;2377;51.734;8.950;2023-03-04T06:45:10;98361.03;;;3.46;95.74
27712;BME280;2377;51.734;8.950;2023-03-04T06:47:38;98360.25;;;3.45;95.94
27712;BME280;2377;51.734;8.950;2023-03-04T06:50:05;98357.44;;;3.48;96.74
27712;BME280;2377;51.734;8.950;2023-03-04T06:52:32;98367.09;;;3.53;96.82
27712;BME280;2377;51.734;8.950;2023-03-04T06:55:00;98363.75;;;3.52;96.30
27712;BME280;2377;51.734;8.950;2023-03-04T06:57:27;98360.63;;;3.58;97.08
27712;BME280;2377;51.734;8.950;2023-03-04T06:59:54;98355.75;;;3.73;96.66
27712;BME280;2377;51.734;8.950;2023-03-04T07:02:23;98367.78;;;3.88;96.04
27712;BME280;2377;51.734;8.950;2023-03-04T07:04:50;98357.53;;;3.89;95.28
27712;BME280;2377;51.734;8.950;2023-03-04T07:07:17;98361.75;;;3.80;96.35
27712;BME280;2377;51.734;8.950;2023-03-04T07:09:44;98363.78;;;3.69;96.93
27712;BME280;2377;51.734;8.950;2023-03-04T07:12:11;98364.28;;;3.72;97.69
27712;BME280;2377;51.734;8.950;2023-03-04T07:14:39;98366.63;;;3.74;97.55
27712;BME280;2377;51.734;8.950;2023-03-04T07:17:06;98360.63;;;3.67;98.24
27712;BME280;2377;51.734;8.950;2023-03-04T07:19:34;98355.69;;;3.57;99.04
27712;BME280;2377;51.734;8.950;2023-03-04T07:22:01;98361.53;;;3.49;98.63
27712;BME280;2377;51.734;8.950;2023-03-04T07:24:28;98363.75;;;3.52;99.19
27712;BME280;2377;51.734;8.950;2023-03-04T07:26:55;98362.19;;;3.59;99.85
27712;BME280;2377;51.734;8.950;2023-03-04T07:29:22;98359.34;;;3.54;100.00
27712;BME280;2377;51.734;8.950;2023-03-04T07:31:49;98361.56;;;3.57;100.00
27712;BME280;2377;51.734;8.950;2023-03-04T07:34:17;98360.16;;;3.63;100.00
27712;BME280;2377;51.734;8.950;2023-03-04T07:36:45;98363.50;;;3.72;100.00
27712;BME280;2377;51.734;8.950;2023-03-04T07:39:12;98364.78;;;3.84;99.71
27712;BME280;2377;51.734;8.950;2023-03-04T07:41:40;98359.09;;;3.90;99.11
27712;BME280;2377;51.734;8.950;2023-03-04T07:44:10;98369.69;;;3.94;98.88
27712;BME280;2377;51.734;8.950;2023-03-04T07:46:37;98358.16;;;3.91;98.90
27712;BME280;2377;51.734;8.950;2023-03-04T07:49:05;98360.69;;;3.91;98.41
27712;BME280;2377;51.734;8.950;2023-03-04T07:51:32;98359.09;;;3.82;99.80
27712;BME280;2377;51.734;8.950;2023-03-04T07:54:01;98360.66;;;3.83;99.67
27712;BME280;2377;51.734;8.950;2023-03-04T07:56:31;98355.91;;;3.80;99.04
27712;BME280;2377;51.734;8.950;2023-03-04T07:58:59;98357.16;;;3.68;99.65
27712;BME280;2377;51.734;8.950;2023-03-04T08:01:29;98358.56;;;3.62;100.00
27712;BME280;2377;51.734;8.950;2023-03-04T08:03:57;98362.22;;;3.68;100.00
27712;BME280;2377;51.734;8.950;2023-03-04T08:06:25;98353.06;;;3.75;100.00
27712;BME280;2377;51.734;8.950;2023-03-04T08:08:58;98352.28;;;3.74;100.00
27712;BME280;2377;51.734;8.950;2023-03-04T08:11:28;98354.69;;;3.84;100.00
27712;BME280;2377;51.734;8.950;2023-03-04T08:13:56;98350.56;;;3.99;100.00
27712;BME280;2377;51.734;8.950;2023-03-04T08:16:24;98356.28;;;4.01;100.00
27712;BME280;2377;51.734;8.950;2023-03-04T08:18:53;98355.03;;;4.06;99.99
27712;BME280;2377;51.734;8.950;2023-03-04T08:21:23;98360.06;;;4.06;100.00
27712;BME280;2377;51.734;8.950;2023-03-04T08:23:51;98351.22;;;4.10;100.00
27712;BME280;2377;51.734;8.950;2023-03-04T08:26:21;98349.19;;;4.05;100.00
27712;BME280;2377;51.734;8.950;2023-03-04T08:28:51;98353.41;;;3.96;100.00
27712;BME280;2377;51.734;8.950;2023-03-04T08:31:19;98355.31;;;3.94;100.00
27712;BME280;2377;51.734;8.950;2023-03-04T08:33:46;98357.53;;;3.89;100.00
27712;BME280;2377;51.734;8.950;2023-03-04T08:36:14;98364.00;;;3.92;100.00
27712;BME280;2377;51.734;8.950;2023-03-04T08:38:42;98358.81;;;3.93;100.00
27712;BME280;2377;51.734;8.950;2023-03-04T08:41:09;98366.06;;;3.96;100.00
27712;BME280;2377;51.734;8.950;2023-03-04T08:43:37;98361.66;;;4.07;100.00
27712;BME280;2377;51.734;8.950;2023-03-04T08:46:06;98355.81;;;4.06;100.00
27712;BME280;2377;51.734;8.950;2023-03-04T08:48:33;98354.06;;;4.07;100.00
27712;BME280;2377;51.734;8.950;2023-03-04T08:51:01;98346.97;;;4.10;100.00
27712;BME280;2377;51.734;8.950;2023-03-04T08:53:33;98356.75;;;4.13;100.00
27712;BME280;2377;51.734;8.950;2023-03-04T08:56:00;98343.66;;;4.10;100.00
27712;BME280;2377;51.734;8.950;2023-03-04T08:58:27;98342.22;;;4.07;100.00
27712;BME280;2377;51.734;8.950;2023-03-04T09:00:54;98347.13;;;4.17;100.00
27712;BME280;2377;51.734;8.950;2023-03-04T09:03:22;98343.66;;;4.26;100.00
27712;BME280;2377;51.734;8.950;2023-03-04T09:05:49;98337.00;;;4.25;100.00
27712;BME280;2377;51.734;8.950;2023-03-04T09:08:17;98347.13;;;4.25;100.00
27712;BME280;2377;51.734;8.950;2023-03-04T09:10:45;98337.94;;;4.16;100.00
27712;BME280;2377;51.734;8.950;2023-03-04T09:13:13;98340.19;;;4.19;100.00
27712;BME280;2377;51.734;8.950;2023-03-04T09:15:44;98336.06;;;4.26;100.00
27712;BME280;2377;51.734;8.950;2023-03-04T09:18:12;98340.19;;;4.19;100.00
27712;BME280;2377;51.734;8.950;2023-03-04T09:20:40;98346.19;;;4.10;100.00
27712;BME280;2377;51.734;8.950;2023-03-04T09:23:07;98348.69;;;4.01;100.00
27712;BME280;2377;51.734;8.950;2023-03-04T09:25:35;98344.28;;;4.12;100.00
27712;BME280;2377;51.734;8.950;2023-03-04T09:28:03;98343.16;;;3.98;100.00
27712;BME280;2377;51.734;8.950;2023-03-04T09:30:34;98339.69;;;3.91;100.00
27712;BME280;2377;51.734;8.950;2023-03-04T09:33:01;98341.09;;;3.93;100.00
27712;BME280;2377;51.734;8.950;2023-03-04T09:35:28;98339.53;;;4.00;100.00
27712;BME280;2377;51.734;8.950;2023-03-04T09:37:57;98349.66;;;4.00;100.00
27712;BME280;2377;51.734;8.950;2023-03-04T09:40:29;98342.69;;;4.11;100.00
27712;BME280;2377;51.734;8.950;2023-03-04T09:43:01;98347.75;;;4.11;100.00
27712;BME280;2377;51.734;8.950;2023-03-04T09:45:36;98343.63;;;4.01;100.00
27712;BME280;2377;51.734;8.950;2023-03-04T09:48:05;98337.00;;;4.09;100.00
27712;BME280;2377;51.734;8.950;2023-03-04T09:50:37;98342.84;;;4.17;100.00
27712;BME280;2377;51.734;8.950;2023-03-04T09:53:20;98338.28;;;4.21;100.00
27712;BME280;2377;51.734;8.950;2023-03-04T09:55:51;98334.94;;;4.29;100.00
27712;BME280;2377;51.734;8.950;2023-03-04T09:58:37;98339.69;;;4.32;100.00
27712;BME280;2377;51.734;8.950;2023-03-04T10:01:19;98333.84;;;4.31;100.00
27712;BME280;2377;51.734;8.950;2023-03-04T10:03:53;98328.28;;;4.28;100.00
27712;BME280;2377;51.734;8.950;2023-03-04T10:06:22;98337.94;;;4.40;100.00
27712;BME280;2377;51.734;8.950;2023-03-04T10:08:58;98332.41;;;4.29;100.00
27712;BME280;2377;51.734;8.950;2023-03-04T10:11:31;98335.09;;;4.27;100.00
27712;BME280;2377;51.734;8.950;2023-03-04T10:14:26;98330.22;;;4.17;100.00
27712;BME280;2377;51.734;8.950;2023-03-04T10:17:06;98337.00;;;4.17;100.00
27712;BME280;2377;51.734;8.950;2023-03-04T10:19:53;98332.25;;;4.22;100.00
27712;BME280;2377;51.734;8.950;2023-03-04T10:22:30;98334.47;;;4.25;100.00
27712;BME280;2377;51.734;8.950;2023-03-04T10:25:15;98334.47;;;4.33;100.00
27712;BME280;2377;51.734;8.950;2023-03-04T10:27:51;98330.50;;;4.39;100.00
27712;BME280;2377;51.734;8.950;2023-03-04T10:30:31;98333.03;;;4.39;100.00
27712;BME280;2377;51.734;8.950;2023-03-04T10:33:11;98330.03;;;4.52;100.00
27712;BME280;2377;51.734;8.950;2023-03-04T10:35:38;98331.78;;;4.43;100.00
27712;BME280;2377;51.734;8.950;2023-03-04T10:38:12;98327.19;;;4.38;100.00
27712;BME280;2377;51.734;8.950;2023-03-04T10:40:41;98337.31;;;4.38;100.00
27712;BME280;2377;51.734;8.950;2023-03-04T10:43:15;98323.69;;;4.39;100.00
27712;BME280;2377;51.734;8.950;2023-03-04T10:45:43;98331.31;;;4.48;100.00
27712;BME280;2377;51.734;8.950;2023-03-04T10:48:22;98320.53;;;4.54;100.00
27712;BME280;2377;51.734;8.950;2023-03-04T10:50:49;98330.34;;;4.57;100.00
27712;BME280;2377;51.734;8.950;2023-03-04T10:53:35;98325.91;;;4.51;100.00
27712;BME280;2377;51.734;8.950;2023-03-04T10:56:33;98326.53;;;4.53;100.00
27712;BME280;2377;51.734;8.950;2023-03-04T10:59:40;98322.75;;;4.57;100.00
27712;BME280;2377;51.734;8.950;2023-03-04T11:02:20;98328.44;;;4.51;100.00
27712;BME280;2377;51.734;8.950;2023-03-04T11:04:52;98315.44;;;4.70;100.00
27712;BME280;2377;51.734;8.950;2023-03-04T11:07:21;98313.19;;;4.83;100.00
27712;BME280;2377;51.734;8.950;2023-03-04T11:09:48;98317.63;;;4.90;100.00
27712;BME280;2377;51.734;8.950;2023-03-04T11:12:20;98305.59;;;4.92;100.00
27712;BME280;2377;51.734;8.950;2023-03-04T11:14:50;98309.69;;;4.93;100.00
27712;BME280;2377;51.734;8.950;2023-03-04T11:17:22;98302.09;;;4.93;100.00
27712;BME280;2377;51.734;8.950;2023-03-04T11:19:56;98305.44;;;4.85;100.00
27712;BME280;2377;51.734;8.950;2023-03-04T11:22:26;98306.22;;;4.85;100.00
27712;BME280;2377;51.734;8.950;2023-03-04T11:25:00;98306.22;;;4.77;100.00
27712;BME280;2377;51.734;8.950;2023-03-04T11:27:38;98305.19;;;4.63;100.00
27712;BME280;2377;51.734;8.950;2023-03-04T11:30:31;98305.66;;;4.59;100.00
27712;BME280;2377;51.734;8.950;2023-03-04T11:33:13;98303.44;;;4.64;100.00
27712;BME280;2377;51.734;8.950;2023-03-04T11:35:54;98307.97;;;4.77;100.00
27712;BME280;2377;51.734;8.950;2023-03-04T11:38:32;98307.19;;;4.84;100.00
27712;BME280;2377;51.734;8.950;2023-03-04T11:41:07;98309.38;;;4.87;100.00
27712;BME280;2377;51.734;8.950;2023-03-04T11:43:41;98303.66;;;4.94;100.00
27712;BME280;2377;51.734;8.950;2023-03-04T11:46:41;98299.84;;;4.98;100.00
27712;BME280;2377;51.734;8.950;2023-03-04T11:49:48;98301.09;;;5.02;100.00
27712;BME280;2377;51.734;8.950;2023-03-04T11:52:35;98297.03;;;4.93;100.00
27712;BME280;2377;51.734;8.950;2023-03-04T11:55:25;98299.69;;;4.91;100.00
27712;BME280;2377;51.734;8.950;2023-03-04T11:58:13;98294.13;;;5.04;100.00
27712;BME280;2377;51.734;8.950;2023-03-04T12:00:52;98279.66;;;5.21;100.00
27712;BME280;2377;51.734;8.950;2023-03-04T12:03:50;98282.69;;;5.16;100.00
27712;BME280;2377;51.734;8.950;2023-03-04T12:06:34;98284.22;;;5.25;100.00
27712;BME280;2377;51.734;8.950;2023-03-04T12:09:27;98281.34;;;5.28;100.00
27712;BME280;2377;51.734;8.950;2023-03-04T12:12:18;98276.81;;;5.47;100.00
27712;BME280;2377;51.734;8.950;2023-03-04T12:15:02;98269.72;;;5.65;100.00
27712;BME280;2377;51.734;8.950;2023-03-04T12:17:59;98270.25;;;5.84;100.00
27712;BME280;2377;51.734;8.950;2023-03-04T12:20:48;98270.00;;;5.93;100.00
27712;BME280;2377;51.734;8.950;2023-03-04T12:26:46;98264.47;;;5.90;100.00
27712;BME280;2377;51.734;8.950;2023-03-04T12:29:27;98260.19;;;5.90;100.00
27712;BME280;2377;51.734;8.950;2023-03-04T12:32:07;98258.38;;;5.76;100.00
27712;BME280;2377;51.734;8.950;2023-03-04T12:38:14;98247.25;;;5.62;100.00
27712;BME280;2377;51.734;8.950;2023-03-04T12:40:54;98244.41;;;5.57;100.00
27712;BME280;2377;51.734;8.950;2023-03-04T12:43:38;98247.44;;;5.53;100.00
27712;BME280;2377;51.734;8.950;2023-03-04T12:46:22;98244.75;;;5.54;100.00
27712;BME280;2377;51.734;8.950;2023-03-04T12:49:21;98246.44;;;5.39;100.00
27712;BME280;2377;51.734;8.950;2023-03-04T12:52:03;98240.06;;;5.43;100.00
27712;BME280;2377;51.734;8.950;2023-03-04T12:54:39;98238.28;;;5.51;100.00
27712;BME280;2377;51.734;8.950;2023-03-04T12:57:12;98233.25;;;5.66;100.00
27712;BME280;2377;51.734;8.950;2023-03-04T12:59:46;98233.84;;;5.77;100.00
27712;BME280;2377;51.734;8.950;2023-03-04T13:02:35;98232.97;;;5.84;100.00
27712;BME280;2377;51.734;8.950;2023-03-04T13:05:25;98219.31;;;6.08;100.00
27712;BME280;2377;51.734;8.950;2023-03-04T13:08:09;98223.03;;;6.35;99.22
27712;BME280;2377;51.734;8.950;2023-03-04T13:10:38;98220.13;;;6.53;100.00
27712;BME280;2377;51.734;8.950;2023-03-04T13:13:25;98218.63;;;6.59;99.09
27712;BME280;2377;51.734;8.950;2023-03-04T13:16:03;98218.97;;;6.56;97.99
27712;BME280;2377;51.734;8.950;2023-03-04T13:18:33;98218.63;;;6.59;99.81
27712;BME280;2377;51.734;8.950;2023-03-04T13:21:23;98213.28;;;6.69;100.00
27712;BME280;2377;51.734;8.950;2023-03-04T13:23:52;98209.94;;;6.83;99.42
27712;BME280;2377;51.734;8.950;2023-03-04T13:26:27;98210.81;;;6.90;98.59
27712;BME280;2377;51.734;8.950;2023-03-04T13:29:32;98213.94;;;6.92;96.94
27712;BME280;2377;51.734;8.950;2023-03-04T13:32:04;98209.56;;;6.86;96.06
27712;BME280;2377;51.734;8.950;2023-03-04T13:34:45;98208.88;;;6.92;96.23
27712;BME280;2377;51.734;8.950;2023-03-04T13:37:32;98213.41;;;6.97;95.37
27712;BME280;2377;51.734;8.950;2023-03-04T13:40:32;98195.03;;;6.95;94.82
27712;BME280;2377;51.734;8.950;2023-03-04T13:43:38;98193.84;;;6.76;92.04
27712;BME280;2377;51.734;8.950;2023-03-04T13:46:29;98197.50;;;6.73;93.01
27712;BME280;2377;51.734;8.950;2023-03-04T13:49:05;98194.00;;;6.89;91.65